Time;durP1;ratioP1;P1;durP2;ratioP2;P2;SDS_P1;SDS_P2;PMS_P1;PMS_P2;Temp;Humidity;BMP_temperature;BMP_pressure;BME280_temperature;BME280_humidity;BME280_pressure;Samples;Min_cycle;Max_cycle;Signal;HPM_P1;HPM_P2
2022/11/06 00:02:13;;;;;;;14.63;5.63;;;11.30;99.90;;;;;;5081401;28;20506;-74
2022/11/06 00:04:38;;;;;;;15.95;4.40;;;11.30;99.90;;;;;;5081509;28;20027;-73
2022/11/06 00:07:04;;;;;;;19.10;5.35;;;11.30;99.90;;;;;;5084777;28;20032;-74
2022/11/06 00:09:29;;;;;;;11.88;4.07;;;11.30;99.90;;;;;;5084074;28;20016;-76
2022/11/06 00:11:56;;;;;;;13.25;5.20;;;11.40;99.90;;;;;;5090721;28;20061;-73
2022/11/06 00:14:22;;;;;;;11.10;4.00;;;11.40;99.90;;;;;;5091569;28;20020;-74
2022/11/06 00:16:48;;;;;;;13.77;4.95;;;11.40;99.90;;;;;;5089793;28;20026;-73
2022/11/06 00:19:14;;;;;;;12.15;4.22;;;11.40;99.90;;;;;;5087913;28;20013;-73
2022/11/06 00:21:40;;;;;;;14.70;5.28;;;11.40;99.90;;;;;;5084821;28;20020;-76
2022/11/06 00:24:08;;;;;;;13.07;5.00;;;11.30;99.90;;;;;;5090969;28;20082;-73
2022/11/06 00:26:34;;;;;;;15.35;5.75;;;11.30;99.90;;;;;;5088602;28;20105;-76
2022/11/06 00:29:00;;;;;;;14.82;5.68;;;11.30;99.90;;;;;;5092668;28;20013;-74
2022/11/06 00:31:32;;;;;;;15.95;5.97;;;11.30;99.90;;;;;;5088257;28;20013;-74
2022/11/06 00:33:59;;;;;;;14.20;5.20;;;11.20;99.90;;;;;;5091164;28;20111;-74
2022/11/06 00:36:29;;;;;;;13.15;4.57;;;11.30;99.90;;;;;;5091083;28;20059;-76
2022/11/06 00:38:55;;;;;;;11.48;4.93;;;11.20;99.90;;;;;;5088600;28;20020;-76
2022/11/06 00:41:22;;;;;;;16.75;6.93;;;11.30;99.90;;;;;;5088777;28;20386;-77
2022/11/06 00:43:50;;;;;;;12.90;6.60;;;11.30;99.90;;;;;;5090987;28;20064;-74
2022/11/06 00:46:16;;;;;;;20.55;6.35;;;11.20;99.90;;;;;;5086807;28;20032;-74
2022/11/06 00:48:42;;;;;;;17.73;5.10;;;11.30;99.90;;;;;;5079501;28;20021;-73
2022/11/06 00:51:13;;;;;;;12.50;5.55;;;11.30;99.90;;;;;;5084098;28;20024;-76
2022/11/06 00:53:39;;;;;;;12.98;5.13;;;11.30;99.90;;;;;;5083901;28;20032;-74
2022/11/06 00:56:07;;;;;;;16.65;6.53;;;11.30;99.90;;;;;;5092610;28;20122;-76
2022/11/06 00:58:33;;;;;;;12.30;5.93;;;11.20;99.90;;;;;;5090618;28;20028;-75
2022/11/06 01:01:09;;;;;;;16.38;6.60;;;11.20;99.90;;;;;;5089743;28;20352;-74
2022/11/06 01:03:35;;;;;;;15.15;6.53;;;11.20;99.90;;;;;;5094722;28;20028;-74
2022/11/06 01:06:10;;;;;;;14.85;5.25;;;11.10;99.90;;;;;;5093750;28;20085;-73
2022/11/06 01:08:36;;;;;;;20.20;6.72;;;11.10;99.90;;;;;;5083975;28;20330;-73
2022/11/06 01:11:11;;;;;;;14.02;6.75;;;11.10;99.90;;;;;;5089092;28;20051;-74
2022/11/06 01:13:37;;;;;;;20.52;7.85;;;11.10;99.90;;;;;;5080493;28;20028;-75
2022/11/06 01:16:14;;;;;;;19.05;8.25;;;11.00;99.90;;;;;;5080234;28;20096;-73
2022/11/06 01:18:40;;;;;;;18.35;8.07;;;11.00;99.90;;;;;;5091930;28;20057;-73
2022/11/06 01:21:10;;;;;;;15.15;5.80;;;11.00;99.90;;;;;;5083415;28;20032;-75
2022/11/06 01:23:35;;;;;;;16.98;6.88;;;11.00;99.90;;;;;;5093706;28;20463;-74
2022/11/06 01:26:03;;;;;;;16.38;7.22;;;11.00;99.90;;;;;;5091688;28;20403;-76
2022/11/06 01:28:30;;;;;;;19.83;7.82;;;11.00;99.90;;;;;;5093948;28;20016;-75
2022/11/06 01:30:56;;;;;;;15.50;7.28;;;11.00;99.90;;;;;;5093667;28;20020;-75
2022/11/06 01:33:22;;;;;;;17.80;9.15;;;11.00;99.90;;;;;;5093746;28;20016;-75
2022/11/06 01:35:50;;;;;;;20.13;8.57;;;11.00;99.90;;;;;;5090813;28;20486;-75
2022/11/06 01:38:16;;;;;;;17.98;8.05;;;11.00;99.90;;;;;;5090987;28;20015;-75
2022/11/06 01:40:44;;;;;;;22.25;8.65;;;11.00;99.90;;;;;;5093494;28;20020;-75
2022/11/06 01:43:15;;;;;;;17.08;7.40;;;11.10;99.90;;;;;;5093707;28;20044;-74
2022/11/06 01:45:43;;;;;;;17.55;7.03;;;11.10;99.90;;;;;;5090235;28;20058;-75
2022/11/06 01:48:10;;;;;;;21.75;9.05;;;11.10;99.90;;;;;;5093326;28;20456;-75
2022/11/06 01:50:36;;;;;;;19.00;8.30;;;11.10;99.90;;;;;;5094424;28;20024;-74
2022/11/06 01:53:03;;;;;;;15.75;8.20;;;11.10;99.90;;;;;;5095111;28;20026;-76
2022/11/06 01:55:34;;;;;;;18.15;8.38;;;11.20;99.90;;;;;;5077240;28;20103;-73
2022/11/06 01:58:03;;;;;;;19.55;9.68;;;11.20;99.90;;;;;;5088310;28;20111;-73
2022/11/06 02:00:31;;;;;;;14.98;7.63;;;11.20;99.90;;;;;;5082933;28;20078;-73
2022/11/06 02:02:57;;;;;;;14.10;7.25;;;11.20;99.90;;;;;;5088587;28;20020;-73
2022/11/06 02:05:23;;;;;;;21.88;10.30;;;11.20;99.90;;;;;;5094194;28;20512;-73
2022/11/06 02:07:48;;;;;;;18.65;8.73;;;11.20;99.90;;;;;;5087118;28;20119;-74
2022/11/06 02:10:14;;;;;;;15.98;8.70;;;11.30;99.90;;;;;;5086178;28;20024;-74
2022/11/06 02:12:57;;;;;;;15.63;7.18;;;11.30;99.90;;;;;;5093278;28;20367;-73
2022/11/06 02:15:38;;;;;;;17.75;8.10;;;11.20;99.90;;;;;;5094050;28;20024;-74
2022/11/06 02:18:13;;;;;;;20.48;8.93;;;11.30;99.90;;;;;;5092528;28;20024;-74
2022/11/06 02:20:45;;;;;;;14.27;7.03;;;11.30;99.90;;;;;;5092513;28;20459;-73
2022/11/06 02:23:35;;;;;;;15.20;7.28;;;11.30;99.90;;;;;;5094224;28;20096;-74
2022/11/06 02:26:00;;;;;;;17.33;6.85;;;11.30;99.90;;;;;;5090361;28;20034;-74
2022/11/06 02:28:49;;;;;;;16.38;8.75;;;11.30;99.90;;;;;;5093485;28;20016;-74
2022/11/06 02:31:19;;;;;;;16.98;7.60;;;11.30;99.90;;;;;;5093450;28;20028;-74
2022/11/06 02:33:59;;;;;;;17.95;8.77;;;11.30;99.90;;;;;;5092827;28;20456;-74
2022/11/06 02:36:31;;;;;;;9.52;5.93;;;11.30;99.90;;;;;;5084381;28;20050;-74
2022/11/06 02:39:01;;;;;;;18.15;8.50;;;11.30;99.90;;;;;;5089591;28;20120;-74
2022/11/06 02:41:32;;;;;;;18.98;8.82;;;11.30;99.90;;;;;;5091958;28;20119;-74
2022/11/06 02:43:59;;;;;;;17.05;8.95;;;11.30;99.90;;;;;;5079887;28;20031;-74
2022/11/06 02:46:27;;;;;;;15.40;8.02;;;11.30;99.90;;;;;;5083991;28;20460;-74
2022/11/06 02:49:12;;;;;;;13.85;7.05;;;11.40;99.90;;;;;;5087370;28;20065;-74
2022/11/06 02:51:48;;;;;;;11.15;6.70;;;11.40;99.90;;;;;;5077184;28;20040;-74
2022/11/06 02:54:17;;;;;;;15.00;7.10;;;11.40;99.90;;;;;;5093802;28;20094;-72
2022/11/06 02:56:44;;;;;;;18.00;8.93;;;11.30;99.90;;;;;;5090083;28;20016;-76
2022/11/06 02:59:10;;;;;;;10.07;5.25;;;11.30;99.90;;;;;;5091930;28;20078;-74
2022/11/06 03:01:48;;;;;;;18.67;9.02;;;11.30;99.90;;;;;;5093412;28;20044;-72
2022/11/06 03:04:34;;;;;;;14.50;5.93;;;11.30;99.90;;;;;;5081982;28;20024;-75
2022/11/06 03:07:11;;;;;;;21.13;8.90;;;11.30;99.90;;;;;;5093803;28;20062;-73
2022/11/06 03:09:37;;;;;;;20.50;10.85;;;11.30;99.90;;;;;;5078687;28;20016;-74
2022/11/06 03:12:18;;;;;;;20.52;8.50;;;11.40;99.90;;;;;;5093553;28;20084;-77
2022/11/06 03:14:55;;;;;;;16.77;7.65;;;11.40;99.90;;;;;;5088306;28;20012;-74
2022/11/06 03:17:44;;;;;;;22.35;11.20;;;11.30;99.90;;;;;;5092824;28;20027;-75
2022/11/06 03:20:22;;;;;;;12.90;6.93;;;11.40;99.90;;;;;;5081346;28;20091;-73
2022/11/06 03:23:08;;;;;;;22.77;9.05;;;11.30;99.90;;;;;;5080672;28;20051;-72
2022/11/06 03:25:50;;;;;;;10.68;6.72;;;11.30;99.90;;;;;;5089888;28;20107;-74
2022/11/06 03:28:46;;;;;;;19.73;9.95;;;11.30;99.90;;;;;;5090409;28;20360;-73
2022/11/06 03:31:16;;;;;;;21.55;7.90;;;11.30;99.90;;;;;;5093413;28;20024;-74
2022/11/06 03:34:11;;;;;;;20.60;10.35;;;11.20;99.90;;;;;;5089383;28;20020;-74
2022/11/06 03:36:46;;;;;;;24.30;12.27;;;11.30;99.90;;;;;;5081660;28;20031;-75
2022/11/06 03:39:18;;;;;;;14.05;7.40;;;11.20;99.90;;;;;;5089630;28;20024;-75
2022/11/06 03:42:15;;;;;;;14.57;7.53;;;11.10;99.90;;;;;;5092913;28;20364;-75
2022/11/06 03:44:47;;;;;;;13.35;7.60;;;11.20;99.90;;;;;;5093767;28;20394;-74
2022/11/06 03:47:22;;;;;;;25.77;9.38;;;11.10;99.90;;;;;;5093540;28;20028;-77
2022/11/06 03:50:05;;;;;;;17.20;8.82;;;11.10;99.90;;;;;;5077963;28;20074;-76
2022/11/06 03:53:04;;;;;;;17.48;9.35;;;11.10;99.90;;;;;;5091774;28;20418;-76
2022/11/06 03:55:40;;;;;;;23.13;11.50;;;11.00;99.90;;;;;;5073367;28;20032;-75
2022/11/06 03:58:11;;;;;;;21.88;10.75;;;11.00;99.90;;;;;;5093530;28;20467;-76
2022/11/06 04:00:40;;;;;;;19.73;9.83;;;11.00;99.90;;;;;;5086730;28;20016;-75
2022/11/06 04:03:23;;;;;;;29.08;14.50;;;11.00;99.90;;;;;;5093596;28;20073;-75
2022/11/06 04:06:07;;;;;;;26.13;13.90;;;11.00;99.90;;;;;;5078284;28;20028;-75
2022/11/06 04:14:15;;;;;;;25.52;14.20;;;11.00;99.90;;;;;;5075656;28;20471;-74
2022/11/06 04:16:46;;;;;;;28.55;16.30;;;11.00;99.90;;;;;;5083998;28;20027;-75
2022/11/06 04:19:19;;;;;;;25.25;14.07;;;11.00;99.90;;;;;;5093603;28;20028;-75
2022/11/06 04:22:03;;;;;;;22.85;12.15;;;11.00;99.90;;;;;;5077455;28;20020;-77
2022/11/06 04:28:06;;;;;;;20.75;11.55;;;11.00;99.90;;;;;;5079549;28;20118;-75
2022/11/06 04:30:42;;;;;;;26.40;12.77;;;11.00;99.90;;;;;;5096638;28;20027;-75
2022/11/06 04:33:25;;;;;;;28.35;14.27;;;10.90;99.90;;;;;;5093848;28;20024;-75
2022/11/06 04:36:36;;;;;;;26.65;12.45;;;10.90;99.90;;;;;;5096637;28;20024;-75
2022/11/06 04:39:23;;;;;;;34.67;16.63;;;11.00;99.90;;;;;;5074147;28;20036;-73
2022/11/06 04:42:31;;;;;;;26.10;13.48;;;11.00;99.90;;;;;;5073412;28;20035;-73
2022/11/06 04:45:10;;;;;;;28.45;15.85;;;11.00;99.90;;;;;;5029362;28;20088;-74
2022/11/06 04:47:37;;;;;;;28.65;15.77;;;11.00;99.90;;;;;;5090836;28;20051;-75
2022/11/06 04:50:05;;;;;;;28.38;15.88;;;10.90;99.90;;;;;;5094708;28;20086;-76
2022/11/06 04:52:32;;;;;;;23.50;11.60;;;10.90;99.90;;;;;;5093714;28;20035;-75
2022/11/06 04:54:58;;;;;;;34.35;16.23;;;11.00;99.90;;;;;;5094939;28;20024;-75
2022/11/06 04:57:24;;;;;;;31.65;16.05;;;11.00;99.90;;;;;;5093652;28;20039;-76
2022/11/06 04:59:50;;;;;;;27.42;13.77;;;11.00;99.90;;;;;;5093669;28;20048;-76
2022/11/06 05:02:16;;;;;;;19.35;10.38;;;11.00;99.90;;;;;;5095112;28;20043;-77
2022/11/06 05:04:42;;;;;;;25.83;10.43;;;11.00;99.90;;;;;;5095024;28;20028;-77
2022/11/06 05:07:08;;;;;;;23.48;12.15;;;11.00;99.90;;;;;;5095039;28;20405;-77
2022/11/06 05:09:34;;;;;;;23.25;12.25;;;11.00;99.90;;;;;;5094831;28;20042;-76
2022/11/06 05:11:59;;;;;;;28.27;14.15;;;11.00;99.90;;;;;;5094677;28;20423;-77
2022/11/06 05:14:25;;;;;;;27.15;12.43;;;11.00;99.90;;;;;;5093986;28;20470;-77
2022/11/06 05:16:52;;;;;;;16.88;8.32;;;11.00;99.90;;;;;;5094482;28;20024;-74
2022/11/06 05:19:17;;;;;;;23.58;11.35;;;10.90;99.90;;;;;;5094693;28;20032;-74
2022/11/06 05:24:27;;;;;;;32.15;14.07;;;10.90;99.90;;;;;;5095765;28;20457;-75
2022/11/06 05:26:53;;;;;;;26.95;15.10;;;10.90;99.90;;;;;;5095376;28;20499;-74
2022/11/06 05:29:18;;;;;;;28.85;14.02;;;10.90;99.90;;;;;;5095252;28;20095;-75
2022/11/06 05:31:44;;;;;;;20.27;9.35;;;10.90;99.90;;;;;;5095826;28;20062;-73
2022/11/06 05:34:09;;;;;;;28.50;13.95;;;11.00;99.90;;;;;;5094800;28;20044;-73
2022/11/06 05:36:35;;;;;;;29.23;13.60;;;10.90;99.90;;;;;;5095134;28;20027;-75
2022/11/06 05:39:01;;;;;;;28.00;13.75;;;11.00;99.90;;;;;;5095814;28;20024;-74
2022/11/06 05:41:26;;;;;;;31.65;15.27;;;10.90;99.90;;;;;;5095713;28;20024;-75
2022/11/06 05:43:52;;;;;;;19.35;9.65;;;11.00;99.90;;;;;;5095359;28;20044;-74
2022/11/06 05:46:17;;;;;;;22.15;10.88;;;11.00;99.90;;;;;;5095475;28;20047;-74
2022/11/06 05:48:43;;;;;;;20.17;10.05;;;11.00;99.90;;;;;;5095441;28;20356;-75
2022/11/06 05:51:08;;;;;;;17.40;9.00;;;11.00;99.90;;;;;;5095617;28;20329;-75
2022/11/06 05:53:36;;;;;;;25.17;12.80;;;11.00;99.90;;;;;;5095471;28;20024;-74
2022/11/06 05:56:02;;;;;;;24.02;11.75;;;11.00;99.90;;;;;;5094538;28;20031;-74
2022/11/06 05:58:28;;;;;;;26.73;13.18;;;11.00;99.90;;;;;;5095260;28;20099;-75
2022/11/06 06:00:54;;;;;;;22.02;11.18;;;11.00;99.90;;;;;;5094890;28;20052;-73
2022/11/06 06:03:23;;;;;;;28.60;13.07;;;11.00;99.90;;;;;;5095236;28;20039;-75
2022/11/06 06:05:49;;;;;;;24.80;11.05;;;11.10;99.90;;;;;;5095206;28;20031;-75
2022/11/06 06:08:15;;;;;;;21.60;10.27;;;11.10;99.90;;;;;;5093799;28;20024;-74
2022/11/06 06:10:41;;;;;;;23.55;10.43;;;11.00;99.90;;;;;;5094913;28;20028;-75
2022/11/06 06:13:07;;;;;;;22.08;9.43;;;11.00;99.90;;;;;;5094771;28;20012;-75
2022/11/06 06:15:33;;;;;;;22.17;9.05;;;11.10;99.90;;;;;;5094908;28;20046;-75
2022/11/06 06:17:58;;;;;;;20.55;10.52;;;11.10;99.90;;;;;;5094433;28;20408;-75
2022/11/06 06:20:24;;;;;;;16.95;8.50;;;11.00;99.90;;;;;;5094515;28;20047;-75
2022/11/06 06:22:57;;;;;;;22.67;9.98;;;11.10;99.90;;;;;;5094833;28;20074;-74
2022/11/06 06:25:23;;;;;;;17.77;8.00;;;11.10;99.90;;;;;;5094813;28;20043;-75
2022/11/06 06:27:49;;;;;;;21.80;10.38;;;11.10;99.90;;;;;;5093443;28;20058;-74
2022/11/06 06:30:15;;;;;;;17.58;7.63;;;11.10;99.90;;;;;;5094767;28;20452;-75
2022/11/06 06:32:40;;;;;;;20.25;8.85;;;11.10;99.90;;;;;;5093692;28;20024;-75
2022/11/06 06:35:06;;;;;;;17.38;7.75;;;11.10;99.90;;;;;;5094711;28;20027;-75
2022/11/06 06:37:32;;;;;;;19.13;8.77;;;11.10;99.90;;;;;;5094272;28;20027;-77
2022/11/06 06:39:57;;;;;;;23.10;10.23;;;11.10;99.90;;;;;;5094670;28;20024;-74
2022/11/06 06:42:23;;;;;;;24.10;10.00;;;11.10;99.90;;;;;;5094195;28;20051;-75
2022/11/06 06:44:48;;;;;;;19.08;9.70;;;11.10;99.90;;;;;;5094537;28;20103;-73
2022/11/06 06:47:15;;;;;;;16.48;6.85;;;11.20;99.90;;;;;;5093869;28;20125;-75
2022/11/06 06:49:42;;;;;;;17.38;7.85;;;11.10;99.90;;;;;;5094489;28;20428;-74
2022/11/06 06:52:08;;;;;;;15.65;6.45;;;11.10;99.90;;;;;;5094172;28;20099;-74
2022/11/06 06:54:34;;;;;;;16.15;7.53;;;11.20;99.90;;;;;;5092695;28;20047;-73
2022/11/06 06:56:59;;;;;;;20.15;7.28;;;11.10;99.90;;;;;;5092632;28;20348;-76
2022/11/06 06:59:26;;;;;;;14.85;6.65;;;11.10;99.90;;;;;;5094226;28;20031;-76
2022/11/06 07:01:52;;;;;;;14.35;6.95;;;11.10;99.90;;;;;;5093731;28;20028;-75
2022/11/06 07:04:18;;;;;;;18.52;6.93;;;11.10;99.90;;;;;;5093744;28;20379;-76
2022/11/06 07:06:43;;;;;;;19.08;7.57;;;11.10;99.90;;;;;;5092873;28;20521;-75
2022/11/06 07:09:09;;;;;;;12.82;5.65;;;11.10;99.90;;;;;;5093574;28;20427;-73
2022/11/06 07:11:34;;;;;;;14.57;6.10;;;11.10;99.90;;;;;;5093961;28;20031;-76
2022/11/06 07:14:00;;;;;;;16.38;7.63;;;11.20;99.90;;;;;;5109111;28;20020;-75
2022/11/06 07:16:26;;;;;;;14.35;6.93;;;11.20;99.90;;;;;;5109310;28;20059;-74
2022/11/06 07:18:52;;;;;;;14.48;6.53;;;11.20;99.90;;;;;;5109286;28;20024;-76
2022/11/06 07:21:18;;;;;;;7.00;4.25;;;11.20;99.90;;;;;;5094009;28;20036;-78
2022/11/06 07:23:44;;;;;;;13.18;5.88;;;11.10;99.90;;;;;;5093359;28;20031;-75
2022/11/06 07:26:10;;;;;;;13.90;5.32;;;11.10;99.90;;;;;;5092117;28;20142;-74
2022/11/06 07:28:36;;;;;;;12.27;5.35;;;11.10;99.90;;;;;;5093728;28;20468;-76
2022/11/06 07:31:03;;;;;;;18.08;6.32;;;11.10;99.90;;;;;;5093675;28;20020;-75
2022/11/06 07:33:29;;;;;;;19.95;8.88;;;11.10;99.90;;;;;;5093188;28;20040;-74
2022/11/06 07:36:00;;;;;;;18.55;6.95;;;11.10;99.90;;;;;;5093149;28;20016;-75
2022/11/06 07:38:26;;;;;;;13.38;6.72;;;11.10;99.90;;;;;;5092121;28;20028;-75
2022/11/06 07:40:51;;;;;;;18.70;7.75;;;11.10;99.90;;;;;;5093723;28;20356;-75
2022/11/06 07:43:17;;;;;;;19.08;8.13;;;11.10;99.90;;;;;;5091653;28;20047;-75
2022/11/06 07:45:43;;;;;;;16.88;7.30;;;11.00;99.90;;;;;;5093122;28;20096;-74
2022/11/06 07:48:08;;;;;;;15.00;7.97;;;11.00;99.90;;;;;;5093303;28;20103;-74
2022/11/06 07:50:34;;;;;;;17.98;7.53;;;11.00;99.90;;;;;;5093377;28;20109;-74
2022/11/06 07:53:03;;;;;;;21.60;8.05;;;11.00;99.90;;;;;;5093392;28;20028;-74
2022/11/06 07:55:29;;;;;;;15.13;6.97;;;11.00;99.90;;;;;;5091907;28;20026;-75
2022/11/06 07:57:54;;;;;;;22.05;7.82;;;11.00;99.90;;;;;;5094154;28;20106;-76
2022/11/06 08:00:20;;;;;;;15.30;6.20;;;11.00;99.90;;;;;;5095689;28;20028;-74
2022/11/06 08:02:51;;;;;;;19.42;7.70;;;11.00;99.90;;;;;;5097050;28;20034;-74
2022/11/06 08:05:16;;;;;;;12.27;5.43;;;10.90;99.90;;;;;;5096254;28;20020;-76
2022/11/06 08:07:42;;;;;;;24.05;8.07;;;10.90;99.90;;;;;;5095727;28;20463;-74
2022/11/06 08:10:08;;;;;;;22.30;7.80;;;11.00;99.90;;;;;;5096117;28;20058;-74
2022/11/06 08:12:33;;;;;;;11.55;5.18;;;11.00;99.90;;;;;;5096896;28;20024;-74
2022/11/06 08:14:59;;;;;;;14.77;6.07;;;11.00;99.90;;;;;;5096356;28;20032;-74
2022/11/06 08:17:25;;;;;;;17.83;5.18;;;11.00;99.90;;;;;;5096567;28;20020;-74
2022/11/06 08:19:51;;;;;;;10.82;4.15;;;10.90;99.90;;;;;;5096529;28;20024;-73
2022/11/06 08:22:17;;;;;;;18.92;5.75;;;10.90;99.90;;;;;;5096719;28;20028;-73
2022/11/06 08:24:43;;;;;;;12.85;3.80;;;10.90;99.90;;;;;;5096407;28;20527;-73
2022/11/06 08:27:08;;;;;;;18.25;4.78;;;11.00;99.90;;;;;;5096515;28;20110;-73
2022/11/06 08:29:34;;;;;;;11.10;4.05;;;11.00;99.90;;;;;;5096376;28;20047;-72
2022/11/06 08:32:00;;;;;;;11.90;4.07;;;11.00;99.90;;;;;;5096881;28;20054;-72
2022/11/06 08:34:25;;;;;;;7.88;3.17;;;11.00;99.90;;;;;;5095694;28;20375;-73
2022/11/06 08:36:51;;;;;;;11.63;3.50;;;11.00;99.90;;;;;;5096632;28;20368;-73
2022/11/06 08:39:16;;;;;;;16.15;4.60;;;11.10;99.90;;;;;;5096018;28;20462;-73
2022/11/06 08:41:43;;;;;;;12.40;4.35;;;11.10;99.90;;;;;;5096623;28;20031;-73
2022/11/06 08:44:09;;;;;;;15.88;4.78;;;11.10;99.90;;;;;;5096151;28;20023;-74
2022/11/06 08:46:35;;;;;;;9.32;3.53;;;11.20;99.90;;;;;;5094358;28;20032;-74
2022/11/06 08:49:00;;;;;;;16.30;3.92;;;11.20;99.90;;;;;;5094399;28;20031;-74
2022/11/06 08:51:26;;;;;;;11.13;3.53;;;11.20;99.90;;;;;;5095637;28;20054;-74
2022/11/06 08:53:51;;;;;;;10.15;3.58;;;11.20;99.90;;;;;;5095567;28;20065;-74
2022/11/06 08:56:17;;;;;;;11.30;4.03;;;11.30;99.90;;;;;;5096182;28;20028;-74
2022/11/06 08:58:43;;;;;;;11.27;4.28;;;11.30;99.90;;;;;;5096354;28;20076;-73
2022/11/06 09:01:09;;;;;;;12.77;4.13;;;11.30;99.90;;;;;;5093976;28;20031;-74
2022/11/06 09:03:34;;;;;;;7.60;3.33;;;11.30;99.90;;;;;;5096511;28;20348;-74
2022/11/06 09:06:00;;;;;;;12.38;3.92;;;11.30;99.90;;;;;;5095141;28;20579;-74
2022/11/06 09:08:26;;;;;;;8.40;2.92;;;11.40;99.90;;;;;;5095523;28;20452;-74
2022/11/06 09:10:51;;;;;;;11.68;3.60;;;11.40;99.90;;;;;;5087286;28;20105;-74
2022/11/06 09:13:17;;;;;;;8.88;3.58;;;11.40;99.90;;;;;;5086325;28;20110;-74
2022/11/06 09:15:43;;;;;;;12.65;3.70;;;11.40;99.90;;;;;;5091047;28;20027;-74
2022/11/06 09:18:10;;;;;;;12.30;3.50;;;11.40;99.90;;;;;;5075040;28;20021;-75
2022/11/06 09:20:36;;;;;;;11.13;2.80;;;11.40;99.90;;;;;;5080563;28;20519;-75
2022/11/06 09:23:04;;;;;;;11.50;3.58;;;11.40;99.90;;;;;;5094793;28;20028;-74
2022/11/06 09:25:30;;;;;;;12.05;3.17;;;11.40;99.90;;;;;;5095009;28;20020;-75
2022/11/06 09:27:56;;;;;;;11.07;3.85;;;11.40;99.90;;;;;;5095554;28;20460;-74
2022/11/06 09:30:23;;;;;;;7.70;2.70;;;11.50;99.90;;;;;;5095265;28;20027;-74
2022/11/06 09:32:54;;;;;;;7.00;2.40;;;11.50;99.90;;;;;;5095250;28;20111;-74
2022/11/06 09:35:21;;;;;;;5.90;2.20;;;11.60;99.90;;;;;;5094755;28;20415;-75
2022/11/06 09:37:47;;;;;;;7.85;3.03;;;11.60;99.90;;;;;;5095411;28;20055;-75
2022/11/06 09:40:35;;;;;;;11.82;3.67;;;11.50;99.90;;;;;;5094265;28;20047;-75
2022/11/06 09:43:21;;;;;;;8.82;3.30;;;11.50;99.90;;;;;;5094460;28;20360;-74
2022/11/06 09:45:50;;;;;;;8.18;2.28;;;11.60;99.90;;;;;;5094684;28;20036;-75
2022/11/06 09:48:41;;;;;;;6.63;2.58;;;11.60;99.90;;;;;;5094813;28;20495;-75
2022/11/06 09:51:24;;;;;;;9.27;2.88;;;11.60;99.90;;;;;;5094476;28;20124;-74
2022/11/06 09:53:56;;;;;;;12.00;3.55;;;11.60;99.90;;;;;;5095012;28;20031;-74
2022/11/06 09:56:32;;;;;;;12.30;3.15;;;11.60;99.90;;;;;;5095097;28;20028;-73
2022/11/06 09:59:00;;;;;;;14.07;2.80;;;11.60;99.90;;;;;;5095284;28;20435;-73
2022/11/06 10:01:47;;;;;;;11.93;3.28;;;11.70;99.90;;;;;;5093803;28;20019;-74
2022/11/06 10:04:28;;;;;;;17.50;6.15;;;11.80;99.90;;;;;;5094917;28;20024;-73
2022/11/06 10:06:54;;;;;;;11.32;3.63;;;11.80;99.90;;;;;;5093538;28;20119;-73
2022/11/06 10:09:19;;;;;;;6.90;2.92;;;11.90;99.90;;;;;;5095031;28;20100;-73
2022/11/06 10:12:11;;;;;;;7.95;3.75;;;12.00;99.90;;;;;;5093730;28;20024;-73
2022/11/06 10:14:52;;;;;;;13.35;3.78;;;12.00;99.90;;;;;;5073086;28;20044;-73
2022/11/06 10:17:35;;;;;;;9.95;3.17;;;12.00;99.90;;;;;;5094668;28;20541;-75
2022/11/06 10:20:13;;;;;;;13.55;3.90;;;12.00;99.90;;;;;;5094429;28;20024;-72
2022/11/06 10:22:41;;;;;;;7.82;2.97;;;12.00;99.90;;;;;;5093325;28;20050;-72
2022/11/06 10:25:20;;;;;;;9.80;3.58;;;12.00;99.90;;;;;;5094158;28;20456;-72
2022/11/06 10:28:14;;;;;;;12.75;4.20;;;12.00;99.90;;;;;;5074430;28;20036;-74
2022/11/06 10:31:09;;;;;;;9.45;3.35;;;12.00;99.90;;;;;;5079549;28;20020;-75
2022/11/06 10:33:54;;;;;;;12.55;3.92;;;12.00;99.90;;;;;;5105232;28;20020;-74
2022/11/06 10:36:25;;;;;;;10.18;2.75;;;12.00;99.90;;;;;;5104309;28;20024;-73
2022/11/06 10:38:52;;;;;;;8.38;3.65;;;12.00;99.90;;;;;;5094314;28;20016;-77
2022/11/06 10:41:24;;;;;;;6.07;3.08;;;12.10;99.90;;;;;;5092859;28;20110;-74
2022/11/06 10:44:01;;;;;;;11.32;3.97;;;12.10;99.90;;;;;;5095231;28;20044;-73
2022/11/06 10:46:58;;;;;;;10.52;3.15;;;12.10;99.90;;;;;;5094073;28;20036;-76
2022/11/06 10:49:45;;;;;;;7.50;2.60;;;12.20;99.90;;;;;;5093017;28;20067;-73
2022/11/06 10:52:28;;;;;;;8.80;3.13;;;12.20;99.90;;;;;;5082256;28;20437;-74
2022/11/06 10:55:12;;;;;;;;;;;12.30;99.90;;;;;;5092473;28;20030;-76
2022/11/06 10:57:47;;;;;;;7.13;2.42;;;12.30;99.90;;;;;;5094171;28;20244;-73
2022/11/06 11:00:14;;;;;;;9.88;3.25;;;12.30;99.90;;;;;;5081031;28;20017;-75
2022/11/06 11:02:54;;;;;;;10.70;2.75;;;12.20;99.90;;;;;;5073249;28;20016;-72
2022/11/06 11:05:22;;;;;;;9.15;3.10;;;12.20;99.90;;;;;;5077126;28;20051;-73
2022/11/06 11:07:50;;;;;;;5.55;2.22;;;12.20;99.90;;;;;;5093395;28;20036;-76
2022/11/06 11:10:24;;;;;;;9.82;3.58;;;12.20;99.90;;;;;;5089738;28;20012;-73
2022/11/06 11:12:52;;;;;;;6.57;2.97;;;12.20;99.90;;;;;;5092005;28;20039;-76
2022/11/06 11:15:20;;;;;;;8.25;2.45;;;12.20;99.90;;;;;;5091912;28;20020;-72
2022/11/06 11:18:05;;;;;;;5.63;3.08;;;12.20;99.90;;;;;;5092232;28;20028;-72
2022/11/06 11:20:33;;;;;;;5.05;3.00;;;12.20;99.90;;;;;;5093629;28;20077;-74
2022/11/06 11:23:18;;;;;;;13.63;3.35;;;12.20;99.90;;;;;;5092281;28;20360;-74
2022/11/06 11:25:47;;;;;;;5.70;3.20;;;12.20;99.90;;;;;;5092126;28;20028;-72
2022/11/06 11:28:29;;;;;;;9.20;2.97;;;12.20;99.90;;;;;;5093595;28;20020;-73
2022/11/06 11:31:13;;;;;;;15.52;3.72;;;12.10;99.90;;;;;;5093610;28;20020;-73
2022/11/06 11:33:40;;;;;;;9.45;4.30;;;12.10;99.90;;;;;;5088282;28;20363;-73
2022/11/06 11:36:08;;;;;;;12.85;3.58;;;12.10;99.90;;;;;;5073376;28;20070;-75
2022/11/06 11:38:38;;;;;;;8.63;3.40;;;12.10;99.90;;;;;;5086605;28;20107;-75
2022/11/06 11:41:18;;;;;;;11.35;4.50;;;12.00;99.90;;;;;;5093675;28;20452;-78
2022/11/06 11:44:05;;;;;;;10.10;4.13;;;12.00;99.90;;;;;;5093093;28;20044;-75
2022/11/06 11:46:32;;;;;;;13.48;5.03;;;11.90;99.90;;;;;;5093713;28;20112;-74
2022/11/06 11:48:58;;;;;;;7.80;3.13;;;11.90;99.90;;;;;;5093512;28;20027;-73
2022/11/06 11:51:30;;;;;;;7.03;3.08;;;12.00;99.90;;;;;;5093385;28;20543;-76
2022/11/06 11:54:08;;;;;;;9.85;4.40;;;11.90;99.90;;;;;;5093394;28;20356;-76
2022/11/06 11:56:42;;;;;;;6.25;2.67;;;11.90;99.90;;;;;;5092799;28;20379;-77
2022/11/06 11:59:23;;;;;;;4.30;2.67;;;11.90;99.90;;;;;;5093137;28;20372;-74
2022/11/06 12:01:49;;;;;;;7.95;4.28;;;11.90;99.90;;;;;;5092775;28;20020;-74
2022/11/06 12:04:35;;;;;;;7.15;3.15;;;11.80;99.90;;;;;;5093386;28;20436;-74
2022/11/06 12:07:03;;;;;;;8.32;3.67;;;11.80;99.90;;;;;;5093422;28;20073;-76
2022/11/06 12:09:39;;;;;;;5.22;2.35;;;11.80;99.90;;;;;;5093340;28;20047;-74
2022/11/06 12:12:04;;;;;;;8.88;3.10;;;11.80;99.90;;;;;;5093471;28;20024;-73
2022/11/06 12:14:33;;;;;;;10.65;4.05;;;11.80;99.90;;;;;;5108815;28;20402;-74
2022/11/06 12:17:14;;;;;;;5.18;2.28;;;11.80;99.90;;;;;;5093373;28;20375;-75
2022/11/06 12:19:46;;;;;;;5.73;2.30;;;11.80;99.90;;;;;;5093307;28;20020;-76
2022/11/06 12:22:26;;;;;;;5.00;1.90;;;11.80;99.90;;;;;;5093510;28;20036;-73
2022/11/06 12:24:58;;;;;;;6.10;1.98;;;11.80;99.90;;;;;;5093449;28;20523;-74
2022/11/06 12:27:32;;;;;;;3.45;1.75;;;11.70;99.90;;;;;;5093617;28;20111;-74
2022/11/06 12:30:03;;;;;;;10.02;2.38;;;11.70;99.90;;;;;;5093220;28;20024;-74
2022/11/06 12:33:02;;;;;;;7.13;3.30;;;11.60;99.90;;;;;;5088509;28;20016;-76
2022/11/06 12:35:31;;;;;;;4.95;2.08;;;11.50;99.90;;;;;;5085507;28;20367;-76
2022/11/06 12:38:25;;;;;;;6.60;2.28;;;11.60;99.90;;;;;;5080763;28;20016;-74
2022/11/06 12:41:13;;;;;;;6.80;2.03;;;11.50;99.90;;;;;;5079148;28;20021;-76
2022/11/06 12:43:43;;;;;;;9.15;2.50;;;11.60;99.90;;;;;;5079948;28;20044;-74
2022/11/06 12:46:19;;;;;;;7.15;2.80;;;11.60;99.90;;;;;;5082805;28;20465;-75
2022/11/06 12:49:12;;;;;;;4.38;2.00;;;11.60;99.90;;;;;;5081092;28;20482;-74
2022/11/06 12:51:54;;;;;;;10.15;3.78;;;11.60;99.90;;;;;;5092455;28;20027;-74
2022/11/06 12:54:44;;;;;;;17.85;5.82;;;11.60;99.90;;;;;;5096163;28;20016;-75
2022/11/06 12:57:28;;;;;;;13.57;4.03;;;11.70;99.90;;;;;;5095178;28;20636;-75
2022/11/06 13:00:16;;;;;;;13.43;4.22;;;11.70;99.90;;;;;;5095809;28;20103;-76
2022/11/06 13:02:54;;;;;;;10.75;3.63;;;11.80;99.90;;;;;;5095705;28;20431;-75
2022/11/06 13:05:48;;;;;;;5.85;2.45;;;11.80;99.90;;;;;;5095529;28;20020;-75
2022/11/06 13:08:32;;;;;;;9.73;3.33;;;11.80;99.90;;;;;;5074684;28;20457;-75
2022/11/06 13:11:06;;;;;;;10.65;2.90;;;11.70;99.90;;;;;;5075541;28;20028;-76
2022/11/06 13:13:44;;;;;;;7.35;3.17;;;11.70;99.90;;;;;;5072739;28;20020;-76